sensor_id;sensor_type;location;lat;lon;timestamp;pressure;altitude;pressure_sealevel;temperature;humidity
24013;BME280;12220;50.194;18.948;2023-05-10T00:01:11;102130.45;;;9.38;49.87
24013;BME280;12220;50.194;18.948;2023-05-10T00:03:21;102127.98;;;9.32;50.00
24013;BME280;12220;50.194;18.948;2023-05-10T00:05:23;102124.61;;;9.25;50.09
24013;BME280;12220;50.194;18.948;2023-05-10T00:07:24;102126.74;;;9.19;50.43
24013;BME280;12220;50.194;18.948;2023-05-10T00:09:26;101906.29;;;7.90;50.31
24013;BME280;12220;50.194;18.948;2023-05-10T00:11:36;102117.95;;;9.11;50.41
24013;BME280;12220;50.194;18.948;2023-05-10T00:13:37;101903.03;;;7.80;50.48
24013;BME280;12220;50.194;18.948;2023-05-10T00:15:39;102116.50;;;9.02;50.66
24013;BME280;12220;50.194;18.948;2023-05-10T00:17:40;102112.10;;;8.98;50.77
24013;BME280;12220;50.194;18.948;2023-05-10T00:19:51;102115.92;;;8.94;50.87
24013;BME280;12220;50.194;18.948;2023-05-10T00:21:52;102113.51;;;8.86;51.10
24013;BME280;12220;50.194;18.948;2023-05-10T00:23:54;102117.38;;;8.80;51.28
24013;BME280;12220;50.194;18.948;2023-05-10T00:25:56;102120.42;;;8.72;51.38
24013;BME280;12220;50.194;18.948;2023-05-10T00:28:06;102120.65;;;8.66;51.45
24013;BME280;12220;50.194;18.948;2023-05-10T00:30:08;102115.38;;;8.62;51.58
24013;BME280;12220;50.194;18.948;2023-05-10T00:32:09;102119.18;;;8.58;51.74
24013;BME280;12220;50.194;18.948;2023-05-10T00:34:11;102105.72;;;8.53;51.92
24013;BME280;12220;50.194;18.948;2023-05-10T00:36:21;102113.22;;;8.48;51.97
24013;BME280;12220;50.194;18.948;2023-05-10T00:38:23;102107.94;;;8.42;52.09
24013;BME280;12220;50.194;18.948;2023-05-10T00:40:24;102111.77;;;8.37;52.22
24013;BME280;12220;50.194;18.948;2023-05-10T00:42:26;102108.30;;;8.32;52.45
24013;BME280;12220;50.194;18.948;2023-05-10T00:44:36;102102.98;;;8.29;52.49
24013;BME280;12220;50.194;18.948;2023-05-10T00:46:38;102114.83;;;8.28;52.63
24013;BME280;12220;50.194;18.948;2023-05-10T00:48:39;102108.44;;;8.29;52.71
24013;BME280;12220;50.194;18.948;2023-05-10T00:50:41;102104.88;;;8.27;52.72
24013;BME280;12220;50.194;18.948;2023-05-10T00:52:52;102107.70;;;8.24;52.74
24013;BME280;12220;50.194;18.948;2023-05-10T00:54:53;102100.55;;;8.22;52.84
24013;BME280;12220;50.194;18.948;2023-05-10T00:56:57;102099.63;;;8.21;52.93
24013;BME280;12220;50.194;18.948;2023-05-10T00:58:59;102104.23;;;8.20;52.97
24013;BME280;12220;50.194;18.948;2023-05-10T01:01:07;102099.83;;;8.16;52.95
24013;BME280;12220;50.194;18.948;2023-05-10T01:03:10;102104.46;;;8.14;53.06
24013;BME280;12220;50.194;18.948;2023-05-10T01:05:12;102105.34;;;8.15;53.15
24013;BME280;12220;50.194;18.948;2023-05-10T01:07:14;102090.02;;;8.11;53.19
24013;BME280;12220;50.194;18.948;2023-05-10T01:09:22;102098.34;;;8.08;53.20
24013;BME280;12220;50.194;18.948;2023-05-10T01:11:24;102105.70;;;8.06;53.32
24013;BME280;12220;50.194;18.948;2023-05-10T01:13:36;102102.13;;;8.03;53.38
24013;BME280;12220;50.194;18.948;2023-05-10T01:15:39;102094.91;;;8.02;53.43
24013;BME280;12220;50.194;18.948;2023-05-10T01:17:42;102094.91;;;8.02;53.47
24013;BME280;12220;50.194;18.948;2023-05-10T01:19:46;102088.60;;;8.00;53.52
24013;BME280;12220;50.194;18.948;2023-05-10T01:33:08;102085.03;;;7.75;54.04
24013;BME280;12220;50.194;18.948;2023-05-10T01:40:17;102088.19;;;7.62;54.35
24013;BME280;12220;50.194;18.948;2023-05-10T01:42:31;102081.06;;;7.58;54.43
24013;BME280;12220;50.194;18.948;2023-05-10T01:44:58;102083.02;;;7.55;54.56
24013;BME280;12220;50.194;18.948;2023-05-10T01:47:09;102085.92;;;7.50;54.65
24013;BME280;12220;50.194;18.948;2023-05-10T01:49:23;102079.62;;;7.48;54.76
24013;BME280;12220;50.194;18.948;2023-05-10T01:51:29;102078.80;;;7.46;54.80
24013;BME280;12220;50.194;18.948;2023-05-10T01:53:35;102074.34;;;7.43;54.74
24013;BME280;12220;50.194;18.948;2023-05-10T01:55:47;102076.30;;;7.40;54.95
24013;BME280;12220;50.194;18.948;2023-05-10T01:58:00;102078.16;;;7.38;55.00
24013;BME280;12220;50.194;18.948;2023-05-10T02:00:14;102074.67;;;7.34;55.06
24013;BME280;12220;50.194;18.948;2023-05-10T02:02:20;102072.08;;;7.29;55.17
24013;BME280;12220;50.194;18.948;2023-05-10T02:04:22;102070.44;;;7.25;55.25
24013;BME280;12220;50.194;18.948;2023-05-10T02:06:25;102069.57;;;7.23;55.34
24013;BME280;12220;50.194;18.948;2023-05-10T02:08:28;102068.76;;;7.21;55.38
24013;BME280;12220;50.194;18.948;2023-05-10T02:10:30;102065.29;;;7.16;55.50
24013;BME280;12220;50.194;18.948;2023-05-10T02:12:36;102064.52;;;7.12;55.58
24013;BME280;12220;50.194;18.948;2023-05-10T02:14:38;102070.02;;;7.11;55.70
24013;BME280;12220;50.194;18.948;2023-05-10T02:16:43;102066.38;;;7.10;55.73
24013;BME280;12220;50.194;18.948;2023-05-10T02:18:47;102065.50;;;7.10;55.81
24013;BME280;12220;50.194;18.948;2023-05-10T02:20:50;102070.95;;;7.10;55.86
24013;BME280;12220;50.194;18.948;2023-05-10T02:22:55;102057.33;;;7.10;55.90
24013;BME280;12220;50.194;18.948;2023-05-10T02:24:59;102057.38;;;7.08;56.03
24013;BME280;12220;50.194;18.948;2023-05-10T02:27:03;102053.78;;;7.08;55.92
24013;BME280;12220;50.194;18.948;2023-05-10T02:29:05;102059.30;;;7.05;56.01
24013;BME280;12220;50.194;18.948;2023-05-10T02:31:08;102061.20;;;7.03;56.07
24013;BME280;12220;50.194;18.948;2023-05-10T02:33:13;102052.27;;;6.99;56.11
24013;BME280;12220;50.194;18.948;2023-05-10T02:35:16;102055.07;;;6.96;56.18
24013;BME280;12220;50.194;18.948;2023-05-10T02:37:21;102060.57;;;6.94;56.22
24013;BME280;12220;50.194;18.948;2023-05-10T02:39:24;102061.53;;;6.93;56.31
24013;BME280;12220;50.194;18.948;2023-05-10T02:41:31;102053.42;;;6.92;56.28
24013;BME280;12220;50.194;18.948;2023-05-10T02:43:33;102052.56;;;6.90;56.34
24013;BME280;12220;50.194;18.948;2023-05-10T02:45:37;102054.45;;;6.88;56.38
24013;BME280;12220;50.194;18.948;2023-05-10T02:47:40;102050.88;;;6.86;56.46
24013;BME280;12220;50.194;18.948;2023-05-10T02:49:43;102059.10;;;6.84;56.47
24013;BME280;12220;50.194;18.948;2023-05-10T02:51:50;102052.77;;;6.84;56.53
24013;BME280;12220;50.194;18.948;2023-05-10T02:53:53;102054.62;;;6.83;56.53
24013;BME280;12220;50.194;18.948;2023-05-10T02:55:58;102066.45;;;6.82;56.61
24013;BME280;12220;50.194;18.948;2023-05-10T02:58:01;102056.54;;;6.79;56.65
24013;BME280;12220;50.194;18.948;2023-05-10T03:00:04;102056.54;;;6.79;56.67
24013;BME280;12220;50.194;18.948;2023-05-10T03:02:06;102053.87;;;6.78;56.71
24013;BME280;12220;50.194;18.948;2023-05-10T03:04:08;102057.47;;;6.78;56.71
24013;BME280;12220;50.194;18.948;2023-05-10T03:06:13;102052.94;;;6.79;56.69
24013;BME280;12220;50.194;18.948;2023-05-10T03:08:17;102051.97;;;6.80;56.68
24013;BME280;12220;50.194;18.948;2023-05-10T03:10:18;102056.48;;;6.81;56.64
24013;BME280;12220;50.194;18.948;2023-05-10T03:17:00;102054.85;;;6.75;56.76
24013;BME280;12220;50.194;18.948;2023-05-10T03:19:18;102055.88;;;6.73;56.84
24013;BME280;12220;50.194;18.948;2023-05-10T03:21:36;102064.10;;;6.70;56.90
24013;BME280;12220;50.194;18.948;2023-05-10T03:23:48;102060.61;;;6.66;56.99
24013;BME280;12220;50.194;18.948;2023-05-10T03:25:52;102063.44;;;6.63;57.09
24013;BME280;12220;50.194;18.948;2023-05-10T03:27:54;102055.32;;;6.61;57.18
24013;BME280;12220;50.194;18.948;2023-05-10T03:29:57;102060.66;;;6.65;57.20
24013;BME280;12220;50.194;18.948;2023-05-10T03:31:59;102061.49;;;6.67;57.24
24013;BME280;12220;50.194;18.948;2023-05-10T03:34:01;102055.06;;;6.69;57.28
24013;BME280;12220;50.194;18.948;2023-05-10T03:36:03;102055.90;;;6.71;57.30
24013;BME280;12220;50.194;18.948;2023-05-10T03:38:12;102055.81;;;6.74;57.26
24013;BME280;12220;50.194;18.948;2023-05-10T03:40:14;102060.30;;;6.75;57.21
24013;BME280;12220;50.194;18.948;2023-05-10T03:42:16;102049.41;;;6.75;57.17
24013;BME280;12220;50.194;18.948;2023-05-10T03:44:18;102053.92;;;6.76;57.25
24013;BME280;12220;50.194;18.948;2023-05-10T03:46:26;102047.54;;;6.77;57.22
24013;BME280;12220;50.194;18.948;2023-05-10T03:48:28;102047.59;;;6.76;57.24
24013;BME280;12220;50.194;18.948;2023-05-10T03:50:29;102048.53;;;6.75;57.27
24013;BME280;12220;50.194;18.948;2023-05-10T03:52:31;102044.07;;;6.72;57.36
24013;BME280;12220;50.194;18.948;2023-05-10T03:54:41;102047.84;;;6.68;57.41
24013;BME280;12220;50.194;18.948;2023-05-10T03:56:43;102042.48;;;6.65;57.55
24013;BME280;12220;50.194;18.948;2023-05-10T03:58:44;102056.20;;;6.62;57.68
24013;BME280;12220;50.194;18.948;2023-05-10T04:00:45;102051.74;;;6.59;57.81
24013;BME280;12220;50.194;18.948;2023-05-10T04:02:56;102051.79;;;6.58;57.88
24013;BME280;12220;50.194;18.948;2023-05-10T04:04:58;102048.19;;;6.57;57.99
24013;BME280;12220;50.194;18.948;2023-05-10T04:06:59;102049.13;;;6.56;58.10
24013;BME280;12220;50.194;18.948;2023-05-10T04:09:00;102052.76;;;6.57;58.22
24013;BME280;12220;50.194;18.948;2023-05-10T04:11:12;102054.57;;;6.56;58.28
24013;BME280;12220;50.194;18.948;2023-05-10T04:13:14;102049.13;;;6.56;58.40
24013;BME280;12220;50.194;18.948;2023-05-10T04:15:16;102059.08;;;6.57;58.50
24013;BME280;12220;50.194;18.948;2023-05-10T04:17:17;102052.70;;;6.58;58.60
24013;BME280;12220;50.194;18.948;2023-05-10T04:19:31;102052.60;;;6.61;58.67
24013;BME280;12220;50.194;18.948;2023-05-10T04:21:32;102055.27;;;6.63;58.78
24013;BME280;12220;50.194;18.948;2023-05-10T04:23:33;102059.73;;;6.66;58.90
24013;BME280;12220;50.194;18.948;2023-05-10T04:25:35;102055.12;;;6.68;59.03
24013;BME280;12220;50.194;18.948;2023-05-10T04:27:42;102050.50;;;6.70;59.04
24013;BME280;12220;50.194;18.948;2023-05-10T04:29:43;102056.80;;;6.72;59.18
24013;BME280;12220;50.194;18.948;2023-05-10T04:31:45;102053.10;;;6.74;59.30
24013;BME280;12220;50.194;18.948;2023-05-10T04:33:46;102054.80;;;6.77;59.44
24013;BME280;12220;50.194;18.948;2023-05-10T04:35:57;102053.76;;;6.81;59.57
24013;BME280;12220;50.194;18.948;2023-05-10T04:37:58;102050.00;;;6.85;59.76
24013;BME280;12220;50.194;18.948;2023-05-10T04:40:00;102049.84;;;6.90;59.86
24013;BME280;12220;50.194;18.948;2023-05-10T04:42:03;102047.81;;;6.96;60.12
24013;BME280;12220;50.194;18.948;2023-05-10T04:44:12;102058.48;;;7.03;60.19
24013;BME280;12220;50.194;18.948;2023-05-10T04:46:13;102055.65;;;7.06;60.26
24013;BME280;12220;50.194;18.948;2023-05-10T04:48:14;102062.68;;;7.13;60.37
24013;BME280;12220;50.194;18.948;2023-05-10T04:50:16;102050.63;;;7.20;60.36
24013;BME280;12220;50.194;18.948;2023-05-10T04:52:27;102054.86;;;7.29;60.39
24013;BME280;12220;50.194;18.948;2023-05-10T04:54:28;102056.42;;;7.36;60.32
24013;BME280;12220;50.194;18.948;2023-05-10T04:56:29;102049.75;;;7.45;60.28
24013;BME280;12220;50.194;18.948;2023-05-10T04:58:31;102055.82;;;7.53;60.22
24013;BME280;12220;50.194;18.948;2023-05-10T05:00:42;102055.48;;;7.62;60.20
24013;BME280;12220;50.194;18.948;2023-05-10T05:02:45;102048.85;;;7.70;60.14
24013;BME280;12220;50.194;18.948;2023-05-10T05:04:46;102050.41;;;7.77;60.05
24013;BME280;12220;50.194;18.948;2023-05-10T05:06:48;102037.44;;;7.83;60.05
24013;BME280;12220;50.194;18.948;2023-05-10T05:08:57;102033.47;;;7.92;59.92
24013;BME280;12220;50.194;18.948;2023-05-10T05:10:58;102039.56;;;7.99;59.85
24013;BME280;12220;50.194;18.948;2023-05-10T05:13:00;102041.09;;;8.06;59.77
24013;BME280;12220;50.194;18.948;2023-05-10T05:15:02;102036.31;;;8.13;59.67
24013;BME280;12220;50.194;18.948;2023-05-10T05:17:12;102037.91;;;8.18;59.52
24013;BME280;12220;50.194;18.948;2023-05-10T05:19:14;102034.02;;;8.24;59.54
24013;BME280;12220;50.194;18.948;2023-05-10T05:21:17;102032.73;;;8.34;59.50
24013;BME280;12220;50.194;18.948;2023-05-10T05:23:19;102031.51;;;8.42;59.46
24013;BME280;12220;50.194;18.948;2023-05-10T05:25:27;102033.97;;;8.49;59.40
24013;BME280;12220;50.194;18.948;2023-05-10T05:27:29;102039.12;;;8.57;59.16
24013;BME280;12220;50.194;18.948;2023-05-10T05:29:31;102031.57;;;8.64;59.19
24013;BME280;12220;50.194;18.948;2023-05-10T05:31:32;102033.91;;;8.73;59.11
24013;BME280;12220;50.194;18.948;2023-05-10T05:33:42;102029.91;;;8.82;58.98
24013;BME280;12220;50.194;18.948;2023-05-10T05:35:43;102031.42;;;8.89;58.89
24013;BME280;12220;50.194;18.948;2023-05-10T05:37:54;102034.66;;;8.99;58.74
24013;BME280;12220;50.194;18.948;2023-05-10T05:39:57;102028.85;;;9.06;58.65
24013;BME280;12220;50.194;18.948;2023-05-10T05:41:58;102023.89;;;9.16;58.61
24013;BME280;12220;50.194;18.948;2023-05-10T05:44:00;102028.94;;;9.25;58.48
24013;BME280;12220;50.194;18.948;2023-05-10T05:46:01;102024.04;;;9.34;58.35
24013;BME280;12220;50.194;18.948;2023-05-10T05:48:03;102029.01;;;9.45;58.28
24013;BME280;12220;50.194;18.948;2023-05-10T05:50:12;102028.48;;;9.57;58.12
24013;BME280;12220;50.194;18.948;2023-05-10T05:52:14;102037.13;;;9.67;57.98
24013;BME280;12220;50.194;18.948;2023-05-10T05:54:15;102031.32;;;9.74;57.78
24013;BME280;12220;50.194;18.948;2023-05-10T05:56:18;102028.95;;;9.86;57.72
24013;BME280;12220;50.194;18.948;2023-05-10T05:58:27;102033.10;;;9.94;57.58
24013;BME280;12220;50.194;18.948;2023-05-10T06:00:29;102039.19;;;10.01;57.48
24013;BME280;12220;50.194;18.948;2023-05-10T06:02:30;102030.69;;;10.07;57.31
24013;BME280;12220;50.194;18.948;2023-05-10T06:04:31;102031.29;;;10.14;57.17
24013;BME280;12220;50.194;18.948;2023-05-10T06:06:42;102029.16;;;10.21;57.06
24013;BME280;12220;50.194;18.948;2023-05-10T06:08:44;102031.45;;;10.30;56.93
24013;BME280;12220;50.194;18.948;2023-05-10T06:10:45;102031.86;;;10.41;56.83
24013;BME280;12220;50.194;18.948;2023-05-10T06:12:47;102024.96;;;10.52;56.66
24013;BME280;12220;50.194;18.948;2023-05-10T06:14:57;102023.54;;;10.62;56.38
24013;BME280;12220;50.194;18.948;2023-05-10T06:16:58;102029.37;;;10.73;56.20
24013;BME280;12220;50.194;18.948;2023-05-10T06:19:01;102033.34;;;10.85;56.02
24013;BME280;12220;50.194;18.948;2023-05-10T06:21:03;102029.00;;;10.98;55.82
24013;BME280;12220;50.194;18.948;2023-05-10T06:23:12;102025.61;;;11.11;55.54
24013;BME280;12220;50.194;18.948;2023-05-10T06:25:13;102020.47;;;11.22;55.34
24013;BME280;12220;50.194;18.948;2023-05-10T06:27:15;102027.97;;;11.36;55.20
24013;BME280;12220;50.194;18.948;2023-05-10T06:29:17;102018.38;;;11.45;55.00
24013;BME280;12220;50.194;18.948;2023-05-10T06:31:27;102027.63;;;11.60;54.82
24013;BME280;12220;50.194;18.948;2023-05-10T06:33:28;102018.79;;;11.71;54.47
24013;BME280;12220;50.194;18.948;2023-05-10T06:35:30;102014.43;;;11.84;54.02
24013;BME280;12220;50.194;18.948;2023-05-10T06:37:34;102022.74;;;12.00;53.95
24013;BME280;12220;50.194;18.948;2023-05-10T06:39:42;102016.45;;;12.14;53.79
24013;BME280;12220;50.194;18.948;2023-05-10T06:41:43;102017.62;;;12.26;53.18
24013;BME280;12220;50.194;18.948;2023-05-10T06:43:45;102013.19;;;12.39;53.09
24013;BME280;12220;50.194;18.948;2023-05-10T06:45:47;102008.77;;;12.52;52.89
24013;BME280;12220;50.194;18.948;2023-05-10T06:47:57;102016.29;;;12.65;52.70
24013;BME280;12220;50.194;18.948;2023-05-10T06:49:58;102009.28;;;12.75;52.42
24013;BME280;12220;50.194;18.948;2023-05-10T06:52:00;102012.18;;;12.88;52.21
24013;BME280;12220;50.194;18.948;2023-05-10T06:54:02;102009.50;;;13.02;52.12
24013;BME280;12220;50.194;18.948;2023-05-10T06:56:12;102003.14;;;13.16;51.86
24013;BME280;12220;50.194;18.948;2023-05-10T06:58:13;101993.28;;;13.28;51.59
24013;BME280;12220;50.194;18.948;2023-05-10T07:00:15;101994.32;;;13.41;51.36
24013;BME280;12220;50.194;18.948;2023-05-10T07:02:19;101999.94;;;13.54;51.22
24013;BME280;12220;50.194;18.948;2023-05-10T07:04:27;101993.45;;;13.70;50.86
24013;BME280;12220;50.194;18.948;2023-05-10T07:06:28;101997.19;;;13.83;50.39
24013;BME280;12220;50.194;18.948;2023-05-10T07:08:33;101993.66;;;13.95;49.80
24013;BME280;12220;50.194;18.948;2023-05-10T07:10:35;101994.63;;;14.09;49.66
24013;BME280;12220;50.194;18.948;2023-05-10T07:12:42;101990.98;;;14.23;49.19
24013;BME280;12220;50.194;18.948;2023-05-10T07:14:43;101994.80;;;14.35;48.77
24013;BME280;12220;50.194;18.948;2023-05-10T07:16:45;101980.19;;;14.47;48.34
24013;BME280;12220;50.194;18.948;2023-05-10T07:18:50;101989.49;;;14.59;48.15
24013;BME280;12220;50.194;18.948;2023-05-10T07:20:57;101983.10;;;14.73;48.03
24013;BME280;12220;50.194;18.948;2023-05-10T07:22:59;101985.12;;;14.84;47.47
24013;BME280;12220;50.194;18.948;2023-05-10T07:25:02;101989.80;;;14.96;47.26
24013;BME280;12220;50.194;18.948;2023-05-10T07:27:03;101979.02;;;15.06;46.84
24013;BME280;12220;50.194;18.948;2023-05-10T07:29:12;101544.62;;;12.64;46.46
24013;BME280;12220;50.194;18.948;2023-05-10T07:31:13;101976.73;;;15.25;46.24
24013;BME280;12220;50.194;18.948;2023-05-10T07:33:14;101977.96;;;15.34;46.06
24013;BME280;12220;50.194;18.948;2023-05-10T07:35:16;101978.20;;;15.44;45.96
24013;BME280;12220;50.194;18.948;2023-05-10T07:37:26;101971.02;;;15.54;46.09
24013;BME280;12220;50.194;18.948;2023-05-10T07:39:28;101969.25;;;15.66;46.18
24013;BME280;12220;50.194;18.948;2023-05-10T07:41:32;101974.89;;;15.77;45.44
24013;BME280;12220;50.194;18.948;2023-05-10T07:43:33;101969.59;;;15.87;44.93
24013;BME280;12220;50.194;18.948;2023-05-10T07:45:41;101966.92;;;15.98;44.92
24013;BME280;12220;50.194;18.948;2023-05-10T07:47:43;101961.61;;;16.08;45.25
24013;BME280;12220;50.194;18.948;2023-05-10T07:49:44;101970.10;;;16.18;43.91
24013;BME280;12220;50.194;18.948;2023-05-10T07:51:57;101966.18;;;16.33;44.33
24013;BME280;12220;50.194;18.948;2023-05-10T07:53:59;101968.78;;;16.48;44.25
24013;BME280;12220;50.194;18.948;2023-05-10T07:58:13;101974.70;;;16.67;42.53
24013;BME280;12220;50.194;18.948;2023-05-10T08:00:17;101967.34;;;16.79;42.37
24013;BME280;12220;50.194;18.948;2023-05-10T08:02:19;101965.78;;;16.88;41.92
24013;BME280;12220;50.194;18.948;2023-05-10T08:04:23;101972.36;;;16.98;41.50
24013;BME280;12220;50.194;18.948;2023-05-10T08:06:25;101959.57;;;17.08;41.18
24013;BME280;12220;50.194;18.948;2023-05-10T08:08:28;101966.02;;;17.20;41.10
24013;BME280;12220;50.194;18.948;2023-05-10T08:10:32;101969.82;;;17.31;40.69
24013;BME280;12220;50.194;18.948;2023-05-10T08:12:34;101954.61;;;17.36;39.85
24013;BME280;12220;50.194;18.948;2023-05-10T08:14:35;101958.52;;;17.45;40.18
24013;BME280;12220;50.194;18.948;2023-05-10T08:16:37;101958.68;;;17.55;40.42
24013;BME280;12220;50.194;18.948;2023-05-10T08:18:47;101957.05;;;17.64;40.14
24013;BME280;12220;50.194;18.948;2023-05-10T08:20:51;101958.20;;;17.72;40.13
24013;BME280;12220;50.194;18.948;2023-05-10T08:22:52;101956.68;;;17.80;39.98
24013;BME280;12220;50.194;18.948;2023-05-10T08:24:54;101957.95;;;17.87;39.92
24013;BME280;12220;50.194;18.948;2023-05-10T08:27:02;101956.57;;;17.92;39.06
24013;BME280;12220;50.194;18.948;2023-05-10T08:29:03;101953.20;;;18.00;38.44
24013;BME280;12220;50.194;18.948;2023-05-10T08:31:05;101967.05;;;18.11;38.42
24013;BME280;12220;50.194;18.948;2023-05-10T08:33:06;101951.41;;;18.22;37.96
24013;BME280;12220;50.194;18.948;2023-05-10T08:35:17;101960.85;;;18.31;37.45
24013;BME280;12220;50.194;18.948;2023-05-10T08:37:19;101960.45;;;18.35;36.04
24013;BME280;12220;50.194;18.948;2023-05-10T08:39:21;101950.75;;;18.41;36.13
24013;BME280;12220;50.194;18.948;2023-05-10T08:41:26;101952.13;;;18.46;35.68
24013;BME280;12220;50.194;18.948;2023-05-10T08:43:32;101947.91;;;18.52;36.12
24013;BME280;12220;50.194;18.948;2023-05-10T08:45:42;101948.56;;;18.56;35.97
24013;BME280;12220;50.194;18.948;2023-05-10T08:47:44;101950.80;;;18.62;36.12
24013;BME280;12220;50.194;18.948;2023-05-10T08:49:48;101951.03;;;18.70;36.29
24013;BME280;12220;50.194;18.948;2023-05-10T08:51:54;101949.37;;;18.79;36.30
24013;BME280;12220;50.194;18.948;2023-05-10T08:53:56;101945.19;;;18.85;36.10
24013;BME280;12220;50.194;18.948;2023-05-10T08:55:58;101954.64;;;18.93;35.75
24013;BME280;12220;50.194;18.948;2023-05-10T08:58:00;101954.10;;;18.99;35.97
24013;BME280;12220;50.194;18.948;2023-05-10T09:00:04;101955.60;;;19.04;35.53
24013;BME280;12220;50.194;18.948;2023-05-10T09:02:10;101955.93;;;19.10;35.94
24013;BME280;12220;50.194;18.948;2023-05-10T09:04:12;101945.19;;;19.17;36.22
24013;BME280;12220;50.194;18.948;2023-05-10T09:06:14;101951.60;;;19.18;35.41
24013;BME280;12220;50.194;18.948;2023-05-10T09:08:18;101966.84;;;19.23;35.51
24013;BME280;12220;50.194;18.948;2023-05-10T09:10:21;101951.55;;;19.29;35.34
24013;BME280;12220;50.194;18.948;2023-05-10T09:12:29;101937.38;;;19.32;35.25
24013;BME280;12220;50.194;18.948;2023-05-10T09:14:31;101944.44;;;19.36;35.60
24013;BME280;12220;50.194;18.948;2023-05-10T09:16:35;101951.06;;;19.45;35.33
24013;BME280;12220;50.194;18.948;2023-05-10T09:18:36;101951.69;;;19.48;34.88
24013;BME280;12220;50.194;18.948;2023-05-10T09:20:38;101943.54;;;19.57;35.50
24013;BME280;12220;50.194;18.948;2023-05-10T09:22:40;101940.95;;;19.65;35.32
24013;BME280;12220;50.194;18.948;2023-05-10T09:24:48;101945.66;;;19.74;35.45
24013;BME280;12220;50.194;18.948;2023-05-10T09:26:56;101943.27;;;19.81;35.24
24013;BME280;12220;50.194;18.948;2023-05-10T09:28:59;101936.72;;;19.92;35.66
24013;BME280;12220;50.194;18.948;2023-05-10T09:31:01;101945.10;;;20.01;35.55
24013;BME280;12220;50.194;18.948;2023-05-10T09:33:03;101936.81;;;20.11;35.36
24013;BME280;12220;50.194;18.948;2023-05-10T09:35:07;101939.59;;;20.21;35.34
24013;BME280;12220;50.194;18.948;2023-05-10T09:37:09;101936.12;;;20.29;35.21
24013;BME280;12220;50.194;18.948;2023-05-10T09:39:11;101951.08;;;20.37;34.42
24013;BME280;12220;50.194;18.948;2023-05-10T09:41:22;101949.78;;;20.42;34.24
24013;BME280;12220;50.194;18.948;2023-05-10T09:43:24;101944.21;;;20.42;34.21
24013;BME280;12220;50.194;18.948;2023-05-10T09:45:30;101941.29;;;20.43;34.04
24013;BME280;12220;50.194;18.948;2023-05-10T09:47:35;101938.08;;;20.48;34.40
24013;BME280;12220;50.194;18.948;2023-05-10T09:49:37;101935.00;;;20.51;34.26
24013;BME280;12220;50.194;18.948;2023-05-10T09:51:38;101944.68;;;20.57;34.19
24013;BME280;12220;50.194;18.948;2023-05-10T09:53:40;101944.09;;;20.63;34.30
24013;BME280;12220;50.194;18.948;2023-05-10T09:55:44;101941.51;;;20.71;33.99
24013;BME280;12220;50.194;18.948;2023-05-10T09:58:00;101933.59;;;20.76;34.27
24013;BME280;12220;50.194;18.948;2023-05-10T10:00:10;101939.61;;;20.81;34.04
24013;BME280;12220;50.194;18.948;2023-05-10T10:02:11;101931.82;;;20.85;34.08
24013;BME280;12220;50.194;18.948;2023-05-10T10:04:13;101927.16;;;20.85;33.89
24013;BME280;12220;50.194;18.948;2023-05-10T10:06:19;101927.89;;;20.87;33.67
24013;BME280;12220;50.194;18.948;2023-05-10T10:08:25;101783.82;;;19.92;33.91
24013;BME280;12220;50.194;18.948;2023-05-10T10:10:28;101929.06;;;20.95;33.69
24013;BME280;12220;50.194;18.948;2023-05-10T10:12:30;101931.99;;;21.03;34.15
24013;BME280;12220;50.194;18.948;2023-05-10T10:14:32;101926.55;;;21.11;33.98
24013;BME280;12220;50.194;18.948;2023-05-10T10:16:39;101917.47;;;21.19;33.90
24013;BME280;12220;50.194;18.948;2023-05-10T10:18:41;101924.77;;;21.20;33.61
24013;BME280;12220;50.194;18.948;2023-05-10T10:20:43;101915.84;;;21.26;33.81
24013;BME280;12220;50.194;18.948;2023-05-10T10:22:45;101909.66;;;21.32;33.45
24013;BME280;12220;50.194;18.948;2023-05-10T10:24:54;101916.85;;;21.35;33.64
24013;BME280;12220;50.194;18.948;2023-05-10T10:27:02;101908.91;;;21.40;33.32
24013;BME280;12220;50.194;18.948;2023-05-10T10:29:18;101903.63;;;21.47;33.37
24013;BME280;12220;50.194;18.948;2023-05-10T10:31:26;101901.39;;;21.50;32.82
24013;BME280;12220;50.194;18.948;2023-05-10T10:35:44;101904.17;;;21.70;33.03
24013;BME280;12220;50.194;18.948;2023-05-10T10:37:53;101893.11;;;21.78;33.20
24013;BME280;12220;50.194;18.948;2023-05-10T10:39:55;101899.98;;;21.84;33.05
24013;BME280;12220;50.194;18.948;2023-05-10T10:41:58;101888.80;;;21.93;33.24
24013;BME280;12220;50.194;18.948;2023-05-10T10:46:18;101884.86;;;22.14;32.47
24013;BME280;12220;50.194;18.948;2023-05-10T10:48:29;101889.96;;;22.19;32.69
24013;BME280;12220;50.194;18.948;2023-05-10T10:50:43;101884.07;;;22.22;32.73
24013;BME280;12220;50.194;18.948;2023-05-10T10:52:45;101883.21;;;22.21;32.23
24013;BME280;12220;50.194;18.948;2023-05-10T10:54:52;101884.75;;;22.06;31.96
24013;BME280;12220;50.194;18.948;2023-05-10T10:59:10;101882.42;;;21.73;32.14
24013;BME280;12220;50.194;18.948;2023-05-10T11:01:14;101882.14;;;21.67;32.44
24013;BME280;12220;50.194;18.948;2023-05-10T11:03:18;101881.71;;;21.71;32.44
24013;BME280;12220;50.194;18.948;2023-05-10T11:09:50;101874.38;;;21.70;32.05
24013;BME280;12220;50.194;18.948;2023-05-10T11:11:53;101880.56;;;21.64;32.07
24013;BME280;12220;50.194;18.948;2023-05-10T11:14:06;101874.30;;;21.52;32.16
24013;BME280;12220;50.194;18.948;2023-05-10T11:18:28;101877.22;;;21.51;32.50
24013;BME280;12220;50.194;18.948;2023-05-10T11:20:38;101882.05;;;21.58;32.59
24013;BME280;12220;50.194;18.948;2023-05-10T11:22:50;101878.02;;;21.71;32.36